Time;durP1;ratioP1;P1;durP2;ratioP2;P2;SDS_P1;SDS_P2;PMS_P1;PMS_P2;Temp;Humidity;BMP_temperature;BMP_pressure;BME280_temperature;BME280_humidity;BME280_pressure;Samples;Min_cycle;Max_cycle;Signal;HPM_P1;HPM_P2
2023/01/18 00:00:29;;;;;;;11.50;8.10;;;0.30;55.90;;;;;;5029260;28;20068;-77
2023/01/18 00:02:56;;;;;;;10.73;8.18;;;0.30;55.90;;;;;;5032449;28;20092;-78
2023/01/18 00:05:22;;;;;;;9.43;7.65;;;0.20;55.80;;;;;;5019990;28;20022;-78
2023/01/18 00:07:49;;;;;;;8.60;7.65;;;0.30;56.00;;;;;;5007196;28;20055;-79
2023/01/18 00:10:15;;;;;;;10.77;7.63;;;0.20;55.80;;;;;;5025606;28;20030;-78
2023/01/18 00:12:41;;;;;;;8.85;7.45;;;0.20;55.80;;;;;;5027340;28;20052;-78
2023/01/18 00:15:07;;;;;;;10.32;7.10;;;0.20;55.90;;;;;;5029175;28;20034;-79
2023/01/18 00:17:46;;;;;;;8.95;6.53;;;0.20;55.90;;;;;;5030115;28;20036;-79
2023/01/18 00:20:17;;;;;;;9.02;6.63;;;0.20;55.90;;;;;;5029559;28;20421;-79
2023/01/18 00:22:43;;;;;;;8.40;6.03;;;0.20;55.90;;;;;;5035250;28;20092;-79
2023/01/18 00:25:10;;;;;;;8.13;6.70;;;0.20;56.00;;;;;;5050660;28;20037;-79
2023/01/18 00:27:36;;;;;;;8.52;7.05;;;0.20;56.00;;;;;;5022017;28;20037;-79
2023/01/18 00:30:07;;;;;;;9.60;6.57;;;0.10;55.80;;;;;;5036004;28;20021;-80
2023/01/18 00:32:33;;;;;;;8.40;6.35;;;0.20;56.00;;;;;;5016382;28;20073;-79
2023/01/18 00:34:59;;;;;;;7.35;6.40;;;0.10;55.80;;;;;;5030523;28;20534;-79
2023/01/18 00:37:26;;;;;;;7.93;5.80;;;0.10;55.80;;;;;;5022615;28;20025;-78
2023/01/18 00:39:52;;;;;;;9.23;6.18;;;0.10;56.40;;;;;;5034609;28;20402;-78
2023/01/18 00:45:03;;;;;;;8.13;5.75;;;0.10;55.80;;;;;;5030962;28;20033;-79
2023/01/18 00:47:29;;;;;;;6.85;5.53;;;0.10;55.80;;;;;;5034888;28;20057;-80
2023/01/18 00:49:55;;;;;;;5.97;5.07;;;0.10;55.80;;;;;;5034183;28;20368;-80
2023/01/18 00:52:21;;;;;;;7.35;5.13;;;0.10;55.90;;;;;;5035850;28;20052;-79
2023/01/18 00:54:47;;;;;;;8.07;5.57;;;0.10;55.90;;;;;;5038342;28;20120;-79
2023/01/18 00:57:15;;;;;;;6.53;4.88;;;0.10;55.90;;;;;;5043312;28;20272;-79
2023/01/18 00:59:45;;;;;;;5.38;4.45;;;0.10;55.90;;;;;;5042961;28;20097;-79
2023/01/18 01:02:12;;;;;;;6.40;4.88;;;0.10;55.90;;;;;;5030967;28;20473;-79
2023/01/18 01:07:23;;;;;;;9.00;5.40;;;0.00;55.80;;;;;;5023958;28;20037;-79
2023/01/18 01:09:50;;;;;;;6.70;4.85;;;0.00;55.80;;;;;;5026329;28;20041;-77
2023/01/18 01:26:08;;;;;;;7.32;4.85;;;-0.10;55.70;;;;;;5028533;28;20120;-78
2023/01/18 01:28:41;;;;;;;5.97;4.40;;;-0.10;55.70;;;;;;5018469;28;20048;-78
2023/01/18 01:31:11;;;;;;;7.32;4.90;;;-0.10;55.80;;;;;;5024314;28;20087;-79
2023/01/18 01:33:37;;;;;;;6.95;4.63;;;-0.10;55.80;;;;;;5016297;28;20543;-78
2023/01/18 01:36:10;;;;;;;6.32;4.88;;;-0.10;55.80;;;;;;5018386;28;20065;-78
2023/01/18 01:38:36;;;;;;;6.22;4.88;;;-0.10;55.80;;;;;;5019440;28;20497;-78
2023/01/18 01:41:06;;;;;;;8.30;4.80;;;-0.10;55.80;;;;;;5022016;28;20044;-78
2023/01/18 01:43:48;;;;;;;5.85;4.32;;;-0.10;55.80;;;;;;5025274;28;20566;-78
2023/01/18 01:46:26;;;;;;;5.60;4.75;;;-0.20;55.70;;;;;;5025544;28;20046;-78
2023/01/18 01:48:59;;;;;;;6.65;4.95;;;-0.20;55.70;;;;;;5025516;28;20049;-79
2023/01/18 01:51:25;;;;;;;5.97;4.57;;;-0.20;55.70;;;;;;5022757;28;20031;-78
2023/01/18 01:53:51;;;;;;;6.45;3.97;;;-0.20;55.70;;;;;;5024881;28;20412;-78
2023/01/18 01:56:19;;;;;;;5.60;4.20;;;-0.20;55.70;;;;;;5041273;28;20029;-79
2023/01/18 01:58:50;;;;;;;4.63;4.00;;;-0.20;55.70;;;;;;5025353;28;20176;-79
2023/01/18 02:01:16;;;;;;;6.68;3.85;;;-0.30;55.60;;;;;;5024340;28;20033;-79
2023/01/18 02:03:42;;;;;;;6.18;3.92;;;-0.30;55.60;;;;;;5020649;28;20489;-79
2023/01/18 02:06:30;;;;;;;5.20;3.88;;;-0.30;55.60;;;;;;5026042;28;20071;-78
2023/01/18 02:09:07;;;;;;;7.05;4.32;;;-0.30;55.60;;;;;;5026818;28;20029;-78
2023/01/18 02:11:34;;;;;;;5.53;3.92;;;-0.30;55.60;;;;;;5022239;28;20029;-79
2023/01/18 02:14:06;;;;;;;5.60;4.20;;;-0.30;55.60;;;;;;5025385;28;20091;-79
2023/01/18 02:16:50;;;;;;;4.10;3.72;;;-0.30;55.70;;;;;;5023756;28;20029;-79
2023/01/18 02:19:31;;;;;;;6.22;4.20;;;-0.30;55.70;;;;;;5023066;28;20048;-79
2023/01/18 02:22:08;;;;;;;6.45;3.75;;;-0.30;55.70;;;;;;5022078;28;20393;-79
2023/01/18 02:25:16;;;;;;;4.05;3.53;;;-0.30;56.20;;;;;;5024296;28;20554;-78
2023/01/18 02:27:54;;;;;;;4.65;3.67;;;-0.30;55.70;;;;;;5029717;28;20041;-78
2023/01/18 02:30:41;;;;;;;4.07;3.25;;;-0.30;55.70;;;;;;5024658;28;20298;-78
2023/01/18 02:33:44;;;;;;;5.95;3.80;;;-0.30;55.70;;;;;;5014515;28;20408;-77
2023/01/18 02:36:26;;;;;;;7.97;3.90;;;-0.30;55.70;;;;;;5015886;28;20025;-79
2023/01/18 02:38:57;;;;;;;7.38;3.80;;;-0.30;55.70;;;;;;5020345;28;20321;-78
2023/01/18 02:47:14;;;;;;;3.95;3.17;;;-0.30;55.60;;;;;;5024246;28;20122;-78
2023/01/18 02:49:41;;;;;;;5.03;3.72;;;-0.30;55.60;;;;;;5022510;28;20101;-78
2023/01/18 02:52:27;;;;;;;6.25;3.00;;;-0.30;55.70;;;;;;5044315;28;20033;-78
2023/01/18 02:54:54;;;;;;;4.75;3.10;;;-0.40;55.50;;;;;;5028254;28;20052;-79
2023/01/18 02:57:20;;;;;;;5.28;3.60;;;-0.30;55.70;;;;;;5025923;28;20033;-79
2023/01/18 02:59:53;;;;;;;6.40;3.10;;;-0.40;55.50;;;;;;5029113;28;20045;-80
2023/01/18 03:02:21;;;;;;;5.88;3.80;;;-0.40;55.60;;;;;;5023427;28;20026;-79
2023/01/18 03:04:55;;;;;;;6.20;3.90;;;-0.40;55.60;;;;;;5028098;28;20396;-79
2023/01/18 03:07:39;;;;;;;6.38;3.53;;;-0.40;55.60;;;;;;5028188;28;20106;-78
2023/01/18 03:10:08;;;;;;;6.57;3.67;;;-0.40;55.60;;;;;;5028594;28;20029;-79
2023/01/18 03:12:49;;;;;;;5.93;3.30;;;-0.40;55.60;;;;;;5028233;28;20456;-79
2023/01/18 03:15:45;;;;;;;4.85;3.83;;;-0.40;55.60;;;;;;5022619;28;20026;-79
2023/01/18 03:18:59;;;;;;;4.57;2.80;;;-0.40;55.60;;;;;;5019005;28;20068;-79
2023/01/18 03:21:45;;;;;;;4.53;3.50;;;-0.40;55.60;;;;;;5023793;28;20022;-78
2023/01/18 03:24:13;;;;;;;6.55;3.75;;;-0.40;55.60;;;;;;5027721;28;20539;-79
2023/01/18 03:26:43;;;;;;;4.13;3.20;;;-0.30;55.70;;;;;;5027169;28;20044;-79
2023/01/18 03:35:08;;;;;;;7.22;3.45;;;-0.30;55.80;;;;;;5011674;28;20030;-79
2023/01/18 03:37:37;;;;;;;3.75;2.70;;;-0.30;55.80;;;;;;5028253;28;20201;-78
2023/01/18 03:40:26;;;;;;;4.40;2.60;;;-0.30;55.80;;;;;;5028163;28;20119;-80
2023/01/18 03:42:58;;;;;;;2.88;2.53;;;-0.30;56.40;;;;;;5026659;28;20036;-79
2023/01/18 03:45:41;;;;;;;6.57;3.03;;;-0.20;55.90;;;;;;5029381;28;20171;-79
2023/01/18 03:48:09;;;;;;;3.78;2.83;;;-0.20;55.90;;;;;;5023421;28;20672;-79
2023/01/18 03:50:47;;;;;;;4.22;2.53;;;-0.10;56.10;;;;;;5025625;28;20037;-78
2023/01/18 03:53:22;;;;;;;4.30;2.38;;;0.00;56.20;;;;;;5027579;28;20738;-78
2023/01/18 03:55:55;;;;;;;3.85;2.28;;;0.00;56.20;;;;;;5024604;28;20056;-78
2023/01/18 03:58:29;;;;;;;4.93;2.40;;;0.10;56.30;;;;;;5027257;28;20033;-79
2023/01/18 04:00:55;;;;;;;5.68;2.58;;;0.20;56.50;;;;;;5022894;28;20039;-78
2023/01/18 04:03:21;;;;;;;4.03;2.55;;;0.20;56.50;;;;;;5026381;28;20787;-78
2023/01/18 04:05:47;;;;;;;4.28;2.08;;;0.30;56.70;;;;;;5027169;28;20036;-78
2023/01/18 04:08:14;;;;;;;4.10;2.50;;;0.40;56.90;;;;;;5026028;28;20519;-80
2023/01/18 04:10:40;;;;;;;5.22;2.95;;;0.40;56.90;;;;;;5034413;28;20624;-79
2023/01/18 04:13:05;;;;;;;4.43;2.25;;;0.50;57.10;;;;;;5026742;28;20095;-80
2023/01/18 04:15:31;;;;;;;5.45;2.75;;;0.50;57.10;;;;;;5026084;28;20034;-80
2023/01/18 04:17:57;;;;;;;4.78;2.53;;;0.60;57.20;;;;;;5009559;28;20041;-79
2023/01/18 04:20:23;;;;;;;7.85;2.70;;;0.60;57.30;;;;;;5020769;28;20162;-79
2023/01/18 04:22:51;;;;;;;7.72;2.03;;;0.70;57.40;;;;;;5015129;28;20045;-79
2023/01/18 04:25:18;;;;;;;4.05;2.70;;;0.70;57.50;;;;;;5028143;28;20543;-78
2023/01/18 04:27:44;;;;;;;4.60;2.40;;;0.80;57.70;;;;;;5036831;28;20496;-79
2023/01/18 04:30:10;;;;;;;4.30;3.03;;;0.90;57.90;;;;;;5025672;28;20533;-79
2023/01/18 04:32:36;;;;;;;4.57;2.40;;;0.90;58.50;;;;;;5032116;28;20042;-79
2023/01/18 04:35:02;;;;;;;5.20;2.70;;;1.00;58.10;;;;;;5037205;28;20892;-78
2023/01/18 04:37:29;;;;;;;4.28;2.08;;;1.00;58.10;;;;;;5026117;28;20055;-78
2023/01/18 04:39:56;;;;;;;5.20;2.50;;;1.00;58.10;;;;;;5025929;28;20120;-78
2023/01/18 04:42:24;;;;;;;5.68;2.47;;;1.10;58.30;;;;;;5026370;28;20036;-78
2023/01/18 04:44:51;;;;;;;6.97;3.00;;;1.10;58.30;;;;;;5016034;28;20038;-79
2023/01/18 04:47:17;;;;;;;4.63;2.47;;;1.20;58.50;;;;;;5025370;28;20045;-79
2023/01/18 04:49:43;;;;;;;5.57;2.58;;;1.20;58.50;;;;;;5022841;28;20033;-78
2023/01/18 04:52:09;;;;;;;2.75;2.10;;;1.20;58.50;;;;;;5018978;28;20033;-78
2023/01/18 04:54:35;;;;;;;3.30;2.05;;;1.30;58.70;;;;;;5025158;28;20052;-79
2023/01/18 04:57:01;;;;;;;3.35;1.98;;;1.30;58.70;;;;;;5026581;28;20033;-78
2023/01/18 04:59:27;;;;;;;4.63;2.50;;;1.40;59.00;;;;;;5012598;28;20125;-78
2023/01/18 05:01:53;;;;;;;5.72;2.30;;;1.40;59.00;;;;;;5019091;28;20030;-77
2023/01/18 05:04:19;;;;;;;3.83;2.17;;;1.40;59.00;;;;;;5021369;28;20034;-79
2023/01/18 05:06:48;;;;;;;7.93;2.70;;;1.40;59.00;;;;;;5036702;28;20052;-78
2023/01/18 05:09:14;;;;;;;5.53;2.30;;;1.40;59.00;;;;;;5022203;28;20037;-79
2023/01/18 05:11:41;;;;;;;7.32;2.70;;;1.40;59.10;;;;;;5029626;28;20038;-78
2023/01/18 05:14:08;;;;;;;5.32;2.17;;;1.40;59.10;;;;;;5026386;28;20126;-79
2023/01/18 05:16:34;;;;;;;7.78;2.45;;;1.50;59.30;;;;;;5017386;28;20057;-79
2023/01/18 05:19:00;;;;;;;7.53;2.47;;;1.40;59.20;;;;;;5031711;28;20049;-80
2023/01/18 05:21:27;;;;;;;3.22;2.25;;;1.50;59.30;;;;;;5021290;28;20111;-81
2023/01/18 05:23:53;;;;;;;5.32;2.30;;;1.50;59.40;;;;;;5030274;28;20717;-81
2023/01/18 05:26:22;;;;;;;3.17;2.00;;;1.50;59.40;;;;;;5022765;28;20040;-82
2023/01/18 05:28:49;;;;;;;5.07;2.20;;;1.50;59.40;;;;;;5029280;28;20022;-81
2023/01/18 05:31:17;;;;;;;5.22;2.67;;;1.50;59.50;;;;;;5027981;28;20095;-81
2023/01/18 05:33:43;;;;;;;2.60;2.15;;;1.50;59.50;;;;;;5019353;28;20045;-80
2023/01/18 05:36:09;;;;;;;4.38;2.35;;;1.50;59.60;;;;;;5030213;28;20405;-79
2023/01/18 05:38:35;;;;;;;6.80;2.00;;;1.50;59.60;;;;;;5029586;28;20079;-79
2023/01/18 05:41:01;;;;;;;3.88;2.20;;;1.50;59.60;;;;;;5029869;28;20033;-79
2023/01/18 05:43:27;;;;;;;3.53;2.25;;;1.50;59.60;;;;;;5024757;28;20026;-79
2023/01/18 05:45:53;;;;;;;4.60;2.28;;;1.50;59.60;;;;;;5027974;28;20041;-80
2023/01/18 05:48:19;;;;;;;5.38;2.10;;;1.50;59.60;;;;;;5027013;28;20033;-80
2023/01/18 05:50:47;;;;;;;5.68;3.03;;;1.60;59.80;;;;;;5026860;28;20033;-80
2023/01/18 05:53:18;;;;;;;5.22;2.40;;;1.60;59.80;;;;;;5033482;28;20041;-80
2023/01/18 05:55:53;;;;;;;5.32;2.17;;;1.60;59.80;;;;;;5039636;28;20037;-80
2023/01/18 05:58:19;;;;;;;4.10;2.10;;;1.60;59.80;;;;;;5033130;28;20044;-80
2023/01/18 06:00:45;;;;;;;9.48;2.25;;;1.60;59.80;;;;;;5031154;28;20026;-80
2023/01/18 06:03:11;;;;;;;7.00;3.05;;;1.70;60.00;;;;;;5028617;28;20510;-79
2023/01/18 06:05:36;;;;;;;6.53;2.33;;;1.70;60.00;;;;;;5019324;28;20038;-79
2023/01/18 06:08:02;;;;;;;4.13;2.03;;;1.70;60.10;;;;;;5037164;28;20052;-80
2023/01/18 06:10:28;;;;;;;3.95;2.10;;;1.80;60.20;;;;;;5038790;28;20055;-80
2023/01/18 06:12:54;;;;;;;5.25;2.13;;;1.80;60.20;;;;;;5025112;28;20040;-80
2023/01/18 06:15:20;;;;;;;4.97;2.03;;;1.80;60.20;;;;;;5031859;28;20044;-80
2023/01/18 06:17:46;;;;;;;3.13;1.88;;;1.90;60.40;;;;;;5037588;28;20121;-80
2023/01/18 06:20:13;;;;;;;3.25;2.22;;;1.90;60.40;;;;;;5028406;28;20052;-79
2023/01/18 06:22:39;;;;;;;8.15;1.83;;;1.90;60.40;;;;;;5028952;28;20411;-80
2023/01/18 06:25:09;;;;;;;5.53;2.33;;;1.90;60.50;;;;;;5040259;28;20021;-80
2023/01/18 06:27:36;;;;;;;2.15;1.52;;;2.00;60.60;;;;;;5034281;28;20060;-79
2023/01/18 06:30:05;;;;;;;4.75;2.30;;;2.00;60.60;;;;;;5024516;28;20025;-82
2023/01/18 06:32:31;;;;;;;2.72;2.00;;;2.00;60.60;;;;;;5036647;28;20128;-79
2023/01/18 06:34:57;;;;;;;3.00;2.00;;;2.10;60.80;;;;;;5029177;28;20025;-79
2023/01/18 06:37:24;;;;;;;3.55;1.77;;;2.10;60.80;;;;;;5044519;28;20585;-80
2023/01/18 06:39:50;;;;;;;2.17;1.90;;;2.20;60.90;;;;;;5036724;28;20228;-80
2023/01/18 06:42:16;;;;;;;4.22;1.70;;;2.20;60.90;;;;;;5019917;28;20022;-79
2023/01/18 06:44:42;;;;;;;2.47;1.83;;;2.20;60.90;;;;;;5013063;28;20042;-79
2023/01/18 06:47:08;;;;;;;4.82;1.75;;;2.30;61.20;;;;;;5018284;28;20459;-77
2023/01/18 06:49:34;;;;;;;4.18;1.63;;;2.30;61.10;;;;;;5027770;28;20043;-78
2023/01/18 06:52:00;;;;;;;5.80;1.92;;;2.30;61.10;;;;;;5024333;28;20132;-78
2023/01/18 06:54:26;;;;;;;3.25;1.23;;;2.30;61.10;;;;;;5035453;28;20060;-81
2023/01/18 06:56:52;;;;;;;3.28;1.65;;;2.40;61.20;;;;;;5017672;28;20482;-78
2023/01/18 06:59:18;;;;;;;2.92;1.60;;;2.40;61.20;;;;;;5005978;28;20137;-79
2023/01/18 07:01:44;;;;;;;4.90;2.13;;;2.40;61.20;;;;;;5026319;28;20101;-79
2023/01/18 07:04:10;;;;;;;2.78;1.65;;;2.50;61.50;;;;;;5019920;28;20080;-85
2023/01/18 07:06:36;;;;;;;4.40;1.65;;;2.50;61.50;;;;;;5043390;28;20450;-85
2023/01/18 07:09:06;;;;;;;2.75;1.25;;;2.50;61.50;;;;;;5028070;28;20507;-88
2023/01/18 07:11:32;;;;;;;5.50;2.25;;;2.50;61.50;;;;;;5019665;28;20060;-80
2023/01/18 07:13:58;;;;;;;10.82;3.05;;;2.60;61.90;;;;;;5036677;28;20064;-82
2023/01/18 07:16:24;;;;;;;8.70;4.25;;;2.70;62.20;;;;;;5016798;28;20150;-84
2023/01/18 07:18:50;;;;;;;4.07;2.33;;;2.90;62.50;;;;;;5030008;28;20045;-78
2023/01/18 07:21:18;;;;;;;4.20;2.28;;;3.00;62.60;;;;;;5019495;28;20480;-78
2023/01/18 07:23:44;;;;;;;3.63;1.98;;;3.10;62.80;;;;;;5032777;28;20558;-78
2023/01/18 07:26:15;;;;;;;5.10;2.10;;;3.10;62.80;;;;;;5032956;28;20156;-77
2023/01/18 07:28:43;;;;;;;5.80;1.90;;;3.10;62.80;;;;;;5027042;28;20033;-79
2023/01/18 07:31:09;;;;;;;3.53;1.85;;;3.20;63.10;;;;;;5034780;28;20555;-80
2023/01/18 07:33:36;;;;;;;4.38;1.50;;;3.10;63.00;;;;;;5024974;28;20124;-83
2023/01/18 07:36:05;;;;;;;3.78;1.65;;;3.10;63.10;;;;;;5023270;28;20045;-82
2023/01/18 07:38:32;;;;;;;1.60;1.45;;;3.00;63.00;;;;;;5025005;28;20040;-84
2023/01/18 07:41:01;;;;;;;3.03;1.95;;;3.10;63.20;;;;;;5030860;28;20032;-84
2023/01/18 07:43:28;;;;;;;3.83;1.50;;;3.10;63.30;;;;;;5033053;28;20030;-83
2023/01/18 07:45:56;;;;;;;4.03;1.80;;;3.00;63.10;;;;;;5019016;28;20049;-88
2023/01/18 07:48:24;;;;;;;2.50;1.63;;;3.00;63.10;;;;;;5022532;28;20108;-80
2023/01/18 07:51:05;;;;;;;5.28;1.48;;;3.00;63.10;;;;;;5014397;28;20053;-78
2023/01/18 07:53:34;;;;;;;1.73;1.27;;;3.10;63.30;;;;;;5022718;28;20102;-78
2023/01/18 07:56:02;;;;;;;1.70;1.23;;;3.00;63.10;;;;;;5011001;28;20503;-80
2023/01/18 07:58:28;;;;;;;3.15;1.67;;;3.00;63.10;;;;;;5008195;28;20029;-87
2023/01/18 08:00:54;;;;;;;6.30;1.52;;;3.00;63.10;;;;;;5019352;28;20033;-85
2023/01/18 08:03:20;;;;;;;2.90;1.33;;;3.00;63.10;;;;;;5025322;28;20130;-85
2023/01/18 08:05:47;;;;;;;3.53;1.45;;;3.10;63.30;;;;;;5025619;28;20516;-86
2023/01/18 08:08:15;;;;;;;3.58;1.50;;;3.00;63.10;;;;;;5040462;28;20514;-85
2023/01/18 08:10:42;;;;;;;4.53;1.60;;;3.00;63.10;;;;;;5028512;28;20526;-86
2023/01/18 08:13:09;;;;;;;3.20;1.30;;;3.00;63.10;;;;;;5034447;28;20049;-88
2023/01/18 08:15:36;;;;;;;3.92;1.55;;;3.10;63.20;;;;;;5043470;28;20029;-78
2023/01/18 08:18:04;;;;;;;3.20;1.73;;;3.10;63.20;;;;;;5010330;28;20026;-80
2023/01/18 08:20:30;;;;;;;2.38;1.95;;;3.10;63.10;;;;;;5005179;28;20161;-85
2023/01/18 08:22:58;;;;;;;3.83;1.80;;;3.10;63.10;;;;;;5022431;28;20112;-87
2023/01/18 08:25:29;;;;;;;1.88;1.38;;;3.10;63.10;;;;;;5018906;28;20046;-86
2023/01/18 08:28:00;;;;;;;4.55;1.52;;;3.20;63.70;;;;;;5012286;28;20041;-89
2023/01/18 08:30:33;;;;;;;6.88;1.48;;;3.10;63.00;;;;;;5030271;28;20041;-86
2023/01/18 08:33:00;;;;;;;3.83;1.63;;;3.10;63.00;;;;;;5013940;28;20077;-87
2023/01/18 08:35:31;;;;;;;5.55;2.00;;;3.10;63.00;;;;;;5012588;28;20040;-86
2023/01/18 08:37:58;;;;;;;3.97;1.65;;;3.20;63.10;;;;;;5004929;28;20048;-86
2023/01/18 08:40:26;;;;;;;3.85;1.35;;;3.20;63.10;;;;;;5020599;28;20026;-80
2023/01/18 08:42:56;;;;;;;2.30;1.35;;;3.20;63.10;;;;;;5026741;28;20153;-78
2023/01/18 08:45:22;;;;;;;1.45;1.17;;;3.20;63.60;;;;;;5014653;28;20038;-86
2023/01/18 08:48:01;;;;;;;3.20;1.40;;;3.30;63.30;;;;;;5027918;28;20045;-83
2023/01/18 08:50:29;;;;;;;3.88;1.27;;;3.30;63.30;;;;;;5009015;28;20045;-81
2023/01/18 08:52:55;;;;;;;3.05;2.03;;;3.30;63.30;;;;;;5031870;28;20194;-83
2023/01/18 08:55:21;;;;;;;2.83;1.50;;;3.40;63.50;;;;;;5023668;28;20040;-82
2023/01/18 08:57:48;;;;;;;3.17;1.70;;;3.50;63.80;;;;;;5029380;28;20032;-81
2023/01/18 09:00:16;;;;;;;5.55;1.58;;;3.70;64.10;;;;;;5032098;28;20032;-83
2023/01/18 09:02:42;;;;;;;2.17;1.52;;;3.80;64.20;;;;;;5026385;28;20048;-78
2023/01/18 09:05:08;;;;;;;3.10;1.70;;;4.00;64.40;;;;;;5028268;28;20407;-83
2023/01/18 09:07:34;;;;;;;4.22;2.45;;;4.10;64.40;;;;;;5031066;28;20032;-80
2023/01/18 09:10:00;;;;;;;2.33;1.60;;;4.30;64.60;;;;;;5039351;28;20449;-81
2023/01/18 09:12:26;;;;;;;3.00;1.67;;;4.40;64.70;;;;;;5026081;28;20384;-82
2023/01/18 09:14:51;;;;;;;3.38;1.75;;;4.60;64.90;;;;;;5027395;28;20095;-80
2023/01/18 09:17:20;;;;;;;2.50;1.50;;;4.70;64.90;;;;;;5035321;28;20025;-82
2023/01/18 09:19:45;;;;;;;1.92;1.35;;;4.80;65.00;;;;;;5038606;28;20171;-82
2023/01/18 09:22:12;;;;;;;2.63;1.30;;;4.90;65.10;;;;;;5011268;28;20121;-82
2023/01/18 09:24:38;;;;;;;2.28;1.33;;;5.00;65.30;;;;;;5021598;28;20072;-83
2023/01/18 09:27:04;;;;;;;3.13;1.35;;;5.10;65.40;;;;;;5026864;28;20444;-84
2023/01/18 09:29:30;;;;;;;1.85;1.38;;;5.20;65.60;;;;;;5040134;28;20041;-84
2023/01/18 09:31:56;;;;;;;4.18;1.33;;;5.30;65.70;;;;;;5029367;28;20471;-82
2023/01/18 09:34:22;;;;;;;3.85;1.63;;;5.30;65.70;;;;;;5033726;28;20121;-82
2023/01/18 09:36:50;;;;;;;4.05;1.35;;;5.40;65.80;;;;;;5053258;28;20033;-82
2023/01/18 09:39:17;;;;;;;4.22;1.45;;;5.40;65.90;;;;;;5030165;28;20512;-82
2023/01/18 09:42:00;;;;;;;8.98;1.63;;;5.50;66.00;;;;;;5030951;28;20390;-83
2023/01/18 09:44:38;;;;;;;1.65;1.10;;;5.60;66.20;;;;;;5031356;28;20022;-83
2023/01/18 09:47:23;;;;;;;3.88;1.38;;;5.60;66.10;;;;;;5038098;28;20087;-84
2023/01/18 09:50:01;;;;;;;4.15;1.50;;;5.70;66.20;;;;;;5034659;28;20059;-83
2023/01/18 09:52:56;;;;;;;4.57;1.45;;;5.70;66.10;;;;;;5044128;28;20065;-84
2023/01/18 09:55:44;;;;;;;3.67;1.35;;;5.80;66.30;;;;;;5044990;28;20043;-82
2023/01/18 09:58:25;;;;;;;2.15;1.30;;;5.90;66.40;;;;;;5016893;28;20210;-82
2023/01/18 10:01:04;;;;;;;3.03;1.48;;;5.90;66.30;;;;;;5027090;28;20037;-78
2023/01/18 10:03:54;;;;;;;4.05;1.27;;;6.00;66.50;;;;;;5012652;28;20038;-76
2023/01/18 10:06:30;;;;;;;1.38;1.20;;;6.10;66.70;;;;;;5014757;28;20299;-78
2023/01/18 10:09:03;;;;;;;1.67;1.30;;;6.10;66.60;;;;;;5033789;28;20214;-81
2023/01/18 10:11:46;;;;;;;8.52;1.20;;;6.10;66.50;;;;;;5041883;28;20029;-81
2023/01/18 10:14:21;;;;;;;1.92;1.15;;;6.20;66.70;;;;;;5028679;28;20044;-82
2023/01/18 10:16:57;;;;;;;1.95;1.30;;;6.30;66.80;;;;;;5020994;28;20037;-82
2023/01/18 10:19:31;;;;;;;2.75;1.10;;;6.30;66.80;;;;;;5028941;28;20042;-82
2023/01/18 10:22:16;;;;;;;1.63;0.90;;;6.40;66.90;;;;;;5016394;28;20065;-83
2023/01/18 10:25:01;;;;;;;1.90;1.23;;;6.40;66.90;;;;;;5034116;28;20041;-82
2023/01/18 10:27:48;;;;;;;3.33;1.27;;;6.50;67.00;;;;;;5013106;28;20033;-83
2023/01/18 10:30:27;;;;;;;1.40;1.00;;;6.50;67.00;;;;;;5025016;28;20037;-83
2023/01/18 10:33:01;;;;;;;1.33;0.93;;;6.60;67.10;;;;;;5020658;28;20034;-82
2023/01/18 10:35:32;;;;;;;5.65;1.20;;;6.60;67.00;;;;;;5028639;28;20443;-81
2023/01/18 10:38:04;;;;;;;2.70;1.17;;;6.70;67.20;;;;;;5031501;28;20040;-82
2023/01/18 10:40:32;;;;;;;4.18;1.13;;;6.60;67.00;;;;;;5030190;28;20120;-83
2023/01/18 10:43:01;;;;;;;3.65;1.15;;;6.70;67.10;;;;;;5010502;28;20030;-81
2023/01/18 10:45:32;;;;;;;3.25;1.17;;;6.70;67.10;;;;;;5014321;28;20131;-83
2023/01/18 10:48:17;;;;;;;1.85;1.10;;;6.80;67.20;;;;;;5027090;28;20053;-83
2023/01/18 10:50:52;;;;;;;3.10;1.45;;;6.80;67.20;;;;;;5013887;28;20034;-82
2023/01/18 10:53:27;;;;;;;0.90;0.80;;;6.80;67.10;;;;;;5030804;28;20515;-83
2023/01/18 10:56:01;;;;;;;1.98;0.98;;;6.90;67.20;;;;;;5020027;28;20457;-83
2023/01/18 10:58:44;;;;;;;3.25;1.00;;;6.90;67.10;;;;;;5014930;28;20063;-81
2023/01/18 11:01:21;;;;;;;1.17;1.08;;;6.90;67.10;;;;;;5028891;28;20028;-82
2023/01/18 11:04:17;;;;;;;2.38;0.85;;;6.90;67.00;;;;;;5022558;28;20034;-81
2023/01/18 11:07:03;;;;;;;1.90;0.80;;;7.00;67.20;;;;;;5008677;28;20121;-82
2023/01/18 11:09:55;;;;;;;2.28;0.93;;;7.00;67.10;;;;;;5035017;28;20558;-82
2023/01/18 11:12:40;;;;;;;1.55;0.75;;;7.10;67.20;;;;;;5014983;28;20357;-81
2023/01/18 11:15:15;;;;;;;1.75;0.85;;;7.10;67.00;;;;;;5033239;28;20033;-80
2023/01/18 11:17:59;;;;;;;3.25;0.82;;;7.20;67.10;;;;;;5022784;28;20021;-80
2023/01/18 11:20:44;;;;;;;0.73;0.73;;;7.30;67.20;;;;;;5022318;28;20034;-81
2023/01/18 11:23:13;;;;;;;2.25;0.90;;;7.30;67.10;;;;;;5004417;28;20041;-82
2023/01/18 11:25:41;;;;;;;0.75;0.70;;;7.40;67.10;;;;;;4986619;28;20045;-82
2023/01/18 11:28:25;;;;;;;3.40;0.95;;;7.40;67.10;;;;;;5019976;28;20376;-76
2023/01/18 11:30:52;;;;;;;1.30;0.80;;;7.50;67.20;;;;;;5015200;28;20068;-77
2023/01/18 11:33:20;;;;;;;0.75;0.73;;;7.50;67.00;;;;;;5021945;28;20041;-77
2023/01/18 11:35:52;;;;;;;1.25;0.77;;;7.50;66.90;;;;;;5024576;28;20396;-78
2023/01/18 11:38:19;;;;;;;1.63;0.77;;;7.60;67.00;;;;;;5017046;28;20310;-83
2023/01/18 11:40:45;;;;;;;1.15;1.00;;;7.60;66.90;;;;;;5029093;28;20262;-87
2023/01/18 11:43:22;;;;;;;1.33;0.75;;;7.70;67.00;;;;;;5030361;28;20045;-83
2023/01/18 11:46:05;;;;;;;5.15;1.10;;;7.70;66.90;;;;;;5037381;28;20037;-81
2023/01/18 11:48:49;;;;;;;6.00;2.60;;;7.80;67.10;;;;;;5024511;28;20048;-81
2023/01/18 11:51:32;;;;;;;1.27;1.02;;;7.80;67.00;;;;;;5018023;28;20530;-82
2023/01/18 11:54:06;;;;;;;4.35;1.20;;;7.90;67.10;;;;;;5016321;28;20044;-81
2023/01/18 11:56:51;;;;;;;1.25;0.85;;;7.90;67.00;;;;;;5035660;28;20739;-80
2023/01/18 11:59:29;;;;;;;3.75;1.20;;;8.00;67.20;;;;;;5023395;28;20102;-81
2023/01/18 12:02:13;;;;;;;2.40;1.23;;;8.00;67.10;;;;;;5028194;28;20472;-84
2023/01/18 12:04:56;;;;;;;7.93;2.45;;;8.10;67.20;;;;;;5009972;28;20275;-78
2023/01/18 12:07:56;;;;;;;6.38;3.05;;;8.10;67.10;;;;;;5014929;28;20053;-77
2023/01/18 12:10:31;;;;;;;3.53;0.90;;;8.20;67.30;;;;;;5024628;28;20499;-80
2023/01/18 12:13:09;;;;;;;2.00;0.90;;;8.20;67.20;;;;;;5023639;28;20033;-80
2023/01/18 12:15:50;;;;;;;3.05;0.88;;;8.30;67.30;;;;;;5023438;28;20072;-78
2023/01/18 12:18:37;;;;;;;2.17;1.00;;;8.30;67.30;;;;;;5023111;28;20061;-79
2023/01/18 12:21:06;;;;;;;1.85;0.90;;;8.30;67.20;;;;;;5012684;28;20038;-78
2023/01/18 12:23:55;;;;;;;1.50;0.80;;;8.40;67.30;;;;;;5006041;28;20128;-79
2023/01/18 12:27:06;;;;;;;1.00;0.90;;;8.50;67.40;;;;;;5017311;28;20044;-80
2023/01/18 12:29:53;;;;;;;2.55;0.60;;;8.50;67.30;;;;;;5013956;28;20045;-77
2023/01/18 12:32:42;;;;;;;4.47;1.20;;;8.60;67.30;;;;;;5021645;28;20053;-80
2023/01/18 12:35:17;;;;;;;2.33;0.90;;;8.60;67.10;;;;;;5023484;28;20041;-78
2023/01/18 12:38:03;;;;;;;2.35;0.70;;;8.70;67.20;;;;;;5017922;28;20045;-80
2023/01/18 12:40:55;;;;;;;2.25;0.80;;;8.70;67.10;;;;;;5010101;28;20069;-75
2023/01/18 12:43:27;;;;;;;3.60;0.73;;;8.80;67.20;;;;;;5025583;28;20052;-76
2023/01/18 12:46:05;;;;;;;1.27;0.82;;;8.80;67.10;;;;;;5008679;28;20440;-74
2023/01/18 12:49:00;;;;;;;1.55;0.82;;;8.80;66.90;;;;;;5035867;28;20033;-77
2023/01/18 12:51:30;;;;;;;2.60;0.90;;;8.80;66.90;;;;;;5015545;28;20349;-79
2023/01/18 12:54:25;;;;;;;2.33;0.80;;;8.90;67.00;;;;;;5020186;28;20199;-79
2023/01/18 12:56:54;;;;;;;1.48;0.90;;;9.00;67.00;;;;;;5005337;28;20049;-79
2023/01/18 12:59:27;;;;;;;2.38;1.00;;;9.10;66.90;;;;;;5014886;28;20121;-79
2023/01/18 13:02:13;;;;;;;2.38;0.90;;;9.20;66.70;;;;;;5008352;28;20033;-79
2023/01/18 13:04:45;;;;;;;2.90;0.70;;;9.20;66.50;;;;;;5014998;28;20034;-79
2023/01/18 13:07:14;;;;;;;0.65;0.65;;;9.30;66.50;;;;;;5010155;28;20041;-79
2023/01/18 13:09:45;;;;;;;1.67;0.70;;;9.30;66.50;;;;;;5018322;28;20025;-80
2023/01/18 13:12:11;;;;;;;1.38;0.60;;;9.30;66.40;;;;;;5019893;28;20229;-80
2023/01/18 13:15:04;;;;;;;3.10;0.80;;;9.30;66.30;;;;;;5004299;28;20485;-79
2023/01/18 13:17:30;;;;;;;3.65;0.88;;;9.40;66.40;;;;;;5035144;28;20027;-80
2023/01/18 13:20:09;;;;;;;2.17;0.80;;;9.40;66.30;;;;;;5022052;28;20523;-80
2023/01/18 13:22:53;;;;;;;2.03;0.77;;;9.50;66.40;;;;;;5019859;28;20041;-79
2023/01/18 13:25:27;;;;;;;0.82;0.63;;;9.60;66.40;;;;;;5017324;28;20218;-79
2023/01/18 13:27:59;;;;;;;2.25;0.80;;;9.60;66.10;;;;;;5040300;28;20032;-79
2023/01/18 13:30:27;;;;;;;1.23;0.63;;;9.70;66.20;;;;;;5040129;28;20035;-80
2023/01/18 13:32:54;;;;;;;4.05;0.73;;;9.70;66.00;;;;;;5008661;28;20087;-80
2023/01/18 13:35:30;;;;;;;3.83;1.25;;;9.70;66.00;;;;;;5026916;28;20358;-79
2023/01/18 13:38:10;;;;;;;0.65;0.65;;;9.80;66.00;;;;;;5044375;28;20037;-80
2023/01/18 13:40:40;;;;;;;0.85;0.60;;;9.80;66.00;;;;;;5029277;28;20476;-80
2023/01/18 13:43:36;;;;;;;1.35;0.60;;;9.90;66.00;;;;;;5032760;28;20385;-79
2023/01/18 13:46:05;;;;;;;3.28;0.77;;;9.90;65.80;;;;;;5000105;28;20288;-79
2023/01/18 13:49:00;;;;;;;0.82;0.65;;;10.00;66.00;;;;;;5028015;28;20033;-80
2023/01/18 13:51:38;;;;;;;1.05;0.60;;;10.00;65.80;;;;;;5028553;28;20726;-81